CPX672 Details

Departure: Miami International Airport (KMIA)
Arrival: Tallahassee International Airport (KTLH) at N/A
Route: WINCO2 WINCO CHRRI SMELZ PATOY JAWJA
Notes:


Current Weather Information
KMIA 191701Z 09018KT 10SM -TSRA BKN035CB BKN100 BKN250 31/19 A3006 RMK AO2 RAB1656 TSB1655 OCNL LTGICCG E TS E MOV W P0000 T03110194
KTLH 191653Z 19005KT 10SM SCT018 BKN045TCU BKN150 BKN250 28/24 A3008 RMK AO2 SLP183 TCU N T02780244